EGAAEGNS

Guest
Details From EGAA - Belfast Aldergrove
To EGNS - Isle Of Man Ronaldsway
Flight Number -
Tags Generated
Created
Modified
Stats Distance 66 nm / 122 km
Max Altitude 0 ft / 0 m
Waypoints 2
Social Downloads 1
Likes 0
Share VATSIM

Download

Looking for another format? Having issues loading an existing format? Contact us
Advertisement - Login to hide

Notes

Generated

Route

EGAA EGNS

ID Type Via Altitude Latitude Longitude Leg Dist Tot Dist Heading (true) Name
O EGAA APT - 0 ft / 0 m 54.65792˚ -6.22862˚ - 0 nm - -
O EGNS APT - 0 ft / 0 m 54.07778˚ -4.63167˚ 65 nm 65 nm 121° / 123° Isle Of Man Ronaldsway

Altitude Profile

Advertisement - Login to hide

EGAA

Details ICAO EGAA (BFS)
Name Belfast Aldergrove
Region United Kingdom
Timezone Europe/London (UTC+1.0)
Stats Elevation 268 ft / 82 m (AMSL)
Location 54.653878° -6.220006°
Runways 2
Magnetic Variation 3.167° W

METAR

EGAA 210720Z 23004KT 2100 -RADZ BKN002 11/11 Q1017

Decode

TAF

TAF EGAA 210454Z 2106/2206 17008KT 9999 SCT006 BKN015 TEMPO 2106/2114 6000 -RADZ RA BKN006 PROB40 TEMPO 2106/2111 4000 RADZ BKN004 BECMG 2109/2112 35014KT TEMPO 2114/2123 BKN012 BECMG 2123/2203 BKN004

Decode

Departure Runways

ID Width Length Bearing (true) Bearing (mag) Surface Threshold Offset Overrun Length
07 148 ft / 45 m 9,095 ft / 2,772 m 65.01° 68.18° Asphalt 0 ft / 0 m 0 ft / 0 m
17 148 ft / 45 m 5,896 ft / 1,797 m 161.98° 165.15° Asphalt 525 ft / 160 m 0 ft / 0 m
25 148 ft / 45 m 9,095 ft / 2,772 m 245.05° 248.22° Asphalt 0 ft / 0 m 0 ft / 0 m
35 148 ft / 45 m 5,896 ft / 1,797 m 341.99° 345.16° Asphalt 502 ft / 153 m 0 ft / 0 m

EGNS

Details ICAO EGNS (IOM)
Name Isle Of Man Ronaldsway
Region United Kingdom
Timezone Europe/Isle_of_Man (UTC+1.0)
Stats Elevation 52 ft / 16 m (AMSL)
Location 54.082833° -4.625475°
Runways 2
Magnetic Variation 2.418° W

METAR

EGNS 210720Z 06006KT CAVOK 13/07 Q1018 NOSIG

Decode

TAF

Not found

Destination Runways

ID Width Length Bearing (true) Bearing (mag) Surface Threshold Offset Overrun Length
03 151 ft / 46 m 4,113 ft / 1,254 m 27.91° 30.33° Asphalt 492 ft / 150 m 0 ft / 0 m
08 151 ft / 46 m 6,016 ft / 1,834 m 77.93° 80.35° Asphalt 545 ft / 166 m 0 ft / 0 m
21 151 ft / 46 m 4,113 ft / 1,254 m 207.92° 210.34° Asphalt 0 ft / 0 m 0 ft / 0 m
26 151 ft / 46 m 6,016 ft / 1,834 m 257.95° 260.37° Asphalt 486 ft / 148 m 0 ft / 0 m

Approach Navaids

Runway Type Ident Frequency Range Bearing (true) Bearing (mag) Slope Elevation
08 Localiser IRH 111.15 MHz 18 nm / 33 km 82.35° 84.77° - 29 ft / 9 m (AMSL)
08 Glidescope IRH 111.15 MHz 10 nm / 19 km 82.35° 84.77° 3.00° 33 ft / 10 m (AMSL)
08 DME IRH 111.15 MHz 18 nm / 33 km - - - 33 ft / 10 m (AMSL)
26 Localiser IRY 111.15 MHz 18 nm / 33 km 257.92° 260.34° - 29 ft / 9 m (AMSL)
26 Glidescope IRY 111.15 MHz 10 nm / 19 km 257.94° 260.36° 3.00° 33 ft / 10 m (AMSL)
26 DME IRY 111.15 MHz 18 nm / 33 km - - - 33 ft / 10 m (AMSL)

Popular Alternatives